Time;durP1;ratioP1;P1;durP2;ratioP2;P2;SDS_P1;SDS_P2;PMS_P1;PMS_P2;Temp;Humidity;BMP_temperature;BMP_pressure;BME280_temperature;BME280_humidity;BME280_pressure;Samples;Min_cycle;Max_cycle;Signal;HPM_P1;HPM_P2
2022/10/01 00:01:19;;;;;;;19.73;17.63;;;;;;;11.48;97.98;97427.06;6282098;28;20318;-43
2022/10/01 00:04:22;;;;;;;17.10;15.20;;;;;;;11.48;98.05;97420.94;6281746;28;20246;-43
2022/10/01 00:07:24;;;;;;;14.90;13.40;;;;;;;11.52;98.24;97426.78;6282854;28;20714;-44
2022/10/01 00:10:29;;;;;;;15.33;13.80;;;;;;;11.53;98.34;97425.84;6265085;28;20316;-43
2022/10/01 00:13:31;;;;;;;15.17;13.57;;;;;;;11.56;98.47;97433.50;6281645;28;20234;-44
2022/10/01 00:16:33;;;;;;;14.57;13.17;;;;;;;11.58;98.52;97439.50;6282090;28;20260;-44
2022/10/01 00:19:35;;;;;;;15.37;13.77;;;;;;;11.61;98.38;97441.84;6282169;28;20229;-44
2022/10/01 00:22:38;;;;;;;16.23;14.63;;;;;;;11.63;98.08;97429.34;6283098;28;20227;-44
2022/10/01 00:25:40;;;;;;;16.27;14.57;;;;;;;11.64;98.28;97429.19;6281170;28;20701;-43
2022/10/01 00:28:45;;;;;;;14.87;12.80;;;;;;;11.65;98.52;97424.75;6281810;28;20230;-45
2022/10/01 00:31:47;;;;;;;15.37;13.77;;;;;;;11.65;98.41;97430.88;6281331;28;20247;-45
2022/10/01 00:34:52;;;;;;;16.87;15.13;;;;;;;11.64;98.09;97433.66;6281941;28;20245;-44
2022/10/01 00:37:54;;;;;;;17.60;15.40;;;;;;;11.65;98.37;97414.19;6269408;28;20574;-44
2022/10/01 00:40:57;;;;;;;16.77;15.00;;;;;;;11.65;98.52;97419.47;6264362;28;20234;-44
2022/10/01 00:44:02;;;;;;;15.53;13.97;;;;;;;11.65;98.13;97420.31;6280539;28;20335;-44
2022/10/01 00:47:36;;;;;;;15.30;12.80;;;;;;;11.65;98.41;97425.59;6280643;28;20579;-44
2022/10/01 00:50:39;;;;;;;13.10;11.80;;;;;;;11.64;98.39;97431.84;6283333;28;20640;-43
2022/10/01 00:53:43;;;;;;;15.20;13.67;;;;;;;11.65;98.30;97432.69;6281487;28;20305;-46
2022/10/01 00:56:46;;;;;;;12.57;11.27;;;;;;;11.63;98.09;97426.69;6281281;28;20232;-44
2022/10/01 00:59:50;;;;;;;15.77;14.10;;;;;;;11.64;98.29;97431.84;6281355;28;20367;-43
2022/10/01 01:02:53;;;;;;;15.87;14.20;;;;;;;11.65;98.37;97430.03;6279753;28;20297;-45
2022/10/01 01:05:55;;;;;;;18.47;15.63;;;;;;;11.67;98.33;97425.47;6264055;28;20717;-44
2022/10/01 01:08:57;;;;;;;13.57;12.17;;;;;;;11.68;98.45;97430.59;6268705;28;20587;-47
2022/10/01 01:12:30;;;;;;;13.47;12.10;;;;;;;11.68;98.75;97435.06;6280255;28;20292;-44
2022/10/01 01:15:50;;;;;;;14.03;12.63;;;;;;;11.67;98.51;97433.38;6280297;28;20284;-45
2022/10/01 01:19:03;;;;;;;16.90;15.10;;;;;;;11.65;98.50;97433.53;6285102;28;20698;-45
2022/10/01 01:22:06;;;;;;;14.97;13.47;;;;;;;11.63;98.41;97426.69;6280794;28;20283;-46
2022/10/01 01:25:11;;;;;;;13.40;12.10;;;;;;;11.64;98.83;97438.94;6279077;28;20233;-45
2022/10/01 01:28:16;;;;;;;14.43;12.93;;;;;;;11.64;98.55;97445.06;6280056;28;20234;-45
2022/10/01 01:31:24;;;;;;;16.10;14.43;;;;;;;11.63;98.81;97443.38;6281754;28;20238;-45
2022/10/01 01:34:30;;;;;;;16.07;14.37;;;;;;;11.64;98.60;97438.94;6280108;28;20233;-44
2022/10/01 01:37:38;;;;;;;15.87;14.07;;;;;;;11.63;98.68;97442.56;6262275;28;20233;-46
2022/10/01 01:40:43;;;;;;;15.17;13.57;;;;;;;11.62;98.87;97447.00;6280239;28;20230;-44
2022/10/01 01:43:50;;;;;;;13.50;12.10;;;;;;;11.62;98.77;97451.44;6266125;28;20240;-44
2022/10/01 01:46:58;;;;;;;19.83;17.43;;;;;;;11.61;98.64;97447.97;6266513;28;20267;-43
2022/10/01 01:50:02;;;;;;;13.87;12.30;;;;;;;11.61;98.81;97442.69;6280709;28;20242;-44
2022/10/01 01:53:04;;;;;;;13.87;12.40;;;;;;;11.60;98.54;97443.66;6279451;28;20643;-47
2022/10/01 01:56:06;;;;;;;13.93;12.43;;;;;;;11.58;98.62;97447.41;6278801;28;20228;-47
2022/10/01 01:59:10;;;;;;;10.73;9.63;;;;;;;11.53;98.59;97439.03;6279593;28;20319;-45
2022/10/01 02:02:22;;;;;;;11.80;8.23;;;;;;;11.50;98.88;97448.06;6278645;28;20230;-45
2022/10/01 02:05:35;;;;;;;8.97;8.00;;;;;;;11.47;98.70;97448.38;6279028;28;20675;-44
2022/10/01 02:08:54;;;;;;;6.93;6.23;;;;;;;11.43;98.84;97447.78;6257463;28;20246;-44
2022/10/01 02:12:41;;;;;;;8.50;7.37;;;;;;;11.39;98.51;97450.81;6274317;28;20697;-44
2022/10/01 02:16:03;;;;;;;9.53;7.50;;;;;;;11.29;98.37;97444.66;6261038;28;20284;-43
2022/10/01 02:19:27;;;;;;;8.43;7.33;;;;;;;11.25;97.99;97436.19;6278915;28;20725;-44
2022/10/01 02:22:44;;;;;;;10.80;8.40;;;;;;;11.22;97.63;97447.00;6279139;28;20237;-45
2022/10/01 02:25:51;;;;;;;9.13;7.80;;;;;;;11.20;97.06;97456.03;6273507;28;20241;-43
2022/10/01 02:28:58;;;;;;;10.20;9.10;;;;;;;11.20;96.93;97461.31;6279785;28;20229;-44
2022/10/01 02:32:01;;;;;;;13.93;10.47;;;;;;;11.20;96.56;97453.38;6278439;28;20302;-43
2022/10/01 02:35:05;;;;;;;10.83;9.43;;;;;;;11.20;96.16;97462.16;6279176;28;20227;-46
2022/10/01 02:38:09;;;;;;;10.27;9.00;;;;;;;11.24;96.02;97457.44;6279284;28;20321;-43
2022/10/01 02:41:14;;;;;;;9.77;8.33;;;;;;;11.24;95.85;97446.88;6279441;28;20310;-44
2022/10/01 02:44:22;;;;;;;9.97;8.00;;;;;;;11.22;96.15;97460.22;6279482;28;20233;-44
2022/10/01 02:47:33;;;;;;;6.60;5.93;;;;;;;11.20;96.15;97459.50;6277579;28;20328;-44
2022/10/01 02:51:04;;;;;;;6.07;5.40;;;;;;;11.19;96.38;97454.34;6279147;28;20685;-44
2022/10/01 02:54:18;;;;;;;6.67;6.03;;;;;;;11.18;96.55;97456.16;6253056;28;20255;-44
2022/10/01 02:57:25;;;;;;;7.80;6.77;;;;;;;11.20;96.76;97456.84;6278316;28;20367;-44
2022/10/01 03:00:28;;;;;;;7.80;7.00;;;;;;;11.20;96.85;97461.31;6279816;28;20230;-44
2022/10/01 03:03:31;;;;;;;6.93;6.23;;;;;;;11.18;97.00;97448.22;6277922;28;20328;-43
2022/10/01 03:06:34;;;;;;;10.90;7.20;;;;;;;11.16;96.95;97449.34;6284034;28;20234;-43
2022/10/01 03:09:37;;;;;;;7.00;6.13;;;;;;;11.13;97.15;97450.44;6282770;28;20701;-44
2022/10/01 03:12:43;;;;;;;11.87;8.07;;;;;;;11.13;97.34;97446.97;6282451;28;20237;-44
2022/10/01 03:15:46;;;;;;;8.77;7.17;;;;;;;11.14;97.44;97448.63;6283758;28;20234;-43
2022/10/01 03:18:48;;;;;;;7.67;6.80;;;;;;;11.14;97.54;97448.63;6284476;28;20276;-44
2022/10/01 03:21:50;;;;;;;6.67;6.00;;;;;;;11.13;97.80;97439.03;6283926;28;20299;-45
2022/10/01 03:24:53;;;;;;;5.90;5.30;;;;;;;11.13;97.92;97437.22;6282987;28;20652;-45
2022/10/01 03:27:55;;;;;;;6.93;6.17;;;;;;;11.13;97.69;97439.88;6282124;28;20262;-44
2022/10/01 03:31:05;;;;;;;7.47;6.20;;;;;;;11.12;97.72;97435.56;6283273;28;20257;-44
2022/10/01 03:34:07;;;;;;;10.27;8.10;;;;;;;11.12;97.89;97443.47;6283444;28;20277;-44
2022/10/01 03:37:10;;;;;;;12.07;7.67;;;;;;;11.12;97.82;97440.00;6282184;28;20235;-44
2022/10/01 03:40:12;;;;;;;8.77;7.10;;;;;;;11.10;97.94;97440.13;6281585;28;20234;-45
2022/10/01 03:43:14;;;;;;;8.00;7.20;;;;;;;11.13;98.09;97454.88;6282879;28;20226;-45
2022/10/01 03:46:16;;;;;;;9.23;7.23;;;;;;;11.14;97.72;97456.56;6282775;28;20717;-44
2022/10/01 03:49:19;;;;;;;7.90;6.47;;;;;;;11.13;97.98;97457.53;6284484;28;20287;-44
2022/10/01 03:52:21;;;;;;;9.37;7.93;;;;;;;11.16;98.20;97460.75;6283172;28;20371;-44
2022/10/01 03:55:24;;;;;;;10.23;8.47;;;;;;;11.17;98.16;97472.16;6286804;28;20637;-44
2022/10/01 03:58:26;;;;;;;10.90;8.43;;;;;;;11.18;98.30;97465.91;6288045;28;20519;-45
2022/10/01 04:01:29;;;;;;;14.03;8.83;;;;;;;11.17;98.09;97462.44;6286036;28;20229;-44
2022/10/01 04:04:32;;;;;;;13.53;10.17;;;;;;;11.18;98.59;97463.28;6281587;28;20267;-43
2022/10/01 04:07:34;;;;;;;11.53;9.07;;;;;;;11.19;98.42;97475.47;6281802;28;20304;-43
2022/10/01 04:10:37;;;;;;;12.57;9.53;;;;;;;11.19;98.38;97462.28;6282393;28;20315;-44
2022/10/01 04:13:39;;;;;;;10.33;8.40;;;;;;;11.19;98.54;97460.47;6282410;28;20928;-44
2022/10/01 04:16:41;;;;;;;8.97;7.87;;;;;;;11.20;98.43;97456.84;6280036;28;20780;-45
2022/10/01 04:19:44;;;;;;;11.73;8.50;;;;;;;11.15;98.51;97463.53;6282506;28;20233;-43
2022/10/01 04:22:46;;;;;;;10.90;9.47;;;;;;;11.13;98.77;97462.81;6281472;28;20692;-43
2022/10/01 04:25:48;;;;;;;10.17;7.20;;;;;;;11.13;98.63;97458.38;6281542;28;20230;-44
2022/10/01 04:28:50;;;;;;;9.53;7.40;;;;;;;11.15;98.92;97455.59;6282002;28;20287;-46
2022/10/01 04:31:53;;;;;;;10.73;9.33;;;;;;;11.15;98.63;97467.00;6281696;28;20234;-44
2022/10/01 04:34:55;;;;;;;10.00;8.27;;;;;;;11.14;98.60;97467.13;6281272;28;20320;-44
2022/10/01 04:38:03;;;;;;;12.80;9.20;;;;;;;11.10;98.41;97461.25;6272514;28;20234;-44
2022/10/01 04:41:06;;;;;;;11.07;8.60;;;;;;;11.06;98.82;97460.72;6263469;28;20265;-43
2022/10/01 04:44:09;;;;;;;9.53;8.07;;;;;;;11.05;98.81;97453.75;6256762;28;20235;-44
2022/10/01 04:47:11;;;;;;;8.77;7.07;;;;;;;11.05;98.76;97455.56;6277705;28;20250;-44
2022/10/01 04:50:14;;;;;;;7.53;6.73;;;;;;;11.03;98.77;97460.13;6282770;28;20664;-44
2022/10/01 04:53:19;;;;;;;8.10;7.20;;;;;;;11.01;98.72;97462.06;6280381;28;20731;-43
2022/10/01 04:56:21;;;;;;;9.20;7.80;;;;;;;11.00;98.91;97461.22;6280771;28;20226;-44
2022/10/01 04:59:24;;;;;;;7.97;7.07;;;;;;;10.99;98.80;97464.81;6279258;28;20226;-43
2022/10/01 05:02:28;;;;;;;10.30;8.27;;;;;;;10.98;98.97;97470.25;6281392;28;20727;-43
2022/10/01 05:05:31;;;;;;;12.33;8.33;;;;;;;10.96;98.84;97477.47;6280344;28;20266;-45
2022/10/01 05:08:33;;;;;;;10.77;9.03;;;;;;;10.97;99.01;97479.13;6280574;28;20233;-44
2022/10/01 05:11:37;;;;;;;9.97;8.53;;;;;;;10.95;99.06;97487.19;6281022;28;20315;-43
2022/10/01 05:14:39;;;;;;;9.10;8.20;;;;;;;10.95;99.10;97483.72;6281100;28;20318;-44
2022/10/01 05:17:42;;;;;;;9.33;7.50;;;;;;;10.95;99.22;97489.00;6281449;28;20234;-44
2022/10/01 05:20:44;;;;;;;9.90;8.33;;;;;;;10.97;99.50;97487.91;6280883;28;20333;-46
2022/10/01 05:23:46;;;;;;;10.33;8.20;;;;;;;10.99;99.22;97493.03;6280040;28;20708;-43
2022/10/01 05:26:48;;;;;;;10.70;8.30;;;;;;;11.00;99.35;97487.63;6280873;28;20230;-44
2022/10/01 05:29:49;;;;;;;10.80;8.83;;;;;;;11.04;99.40;97488.22;6278904;28;20709;-44
2022/10/01 05:32:56;;;;;;;9.57;8.37;;;;;;;11.07;99.18;97485.31;6279009;28;20741;-44
2022/10/01 05:35:58;;;;;;;9.47;8.07;;;;;;;11.08;99.37;97494.88;6279035;28;20234;-44
2022/10/01 05:39:01;;;;;;;9.43;8.20;;;;;;;11.08;99.29;97502.81;6255091;28;20660;-43
2022/10/01 05:42:03;;;;;;;8.67;6.90;;;;;;;11.07;99.23;97502.00;6275990;28;20226;-43
2022/10/01 05:45:08;;;;;;;9.37;7.70;;;;;;;11.08;99.47;97508.09;6279010;28;20210;-44
2022/10/01 05:48:11;;;;;;;14.00;10.90;;;;;;;11.07;99.28;97507.28;6279591;28;20240;-43
2022/10/01 05:51:14;;;;;;;12.37;9.97;;;;;;;11.07;99.44;97504.63;6260841;28;20709;-44
2022/10/01 05:54:18;;;;;;;8.87;7.93;;;;;;;11.09;99.50;97507.97;6277802;28;20218;-45
2022/10/01 05:57:20;;;;;;;10.03;8.77;;;;;;;11.12;99.24;97506.03;6278664;28;20217;-43
2022/10/01 06:00:23;;;;;;;9.63;8.63;;;;;;;11.13;99.16;97497.97;6277321;28;20229;-43
2022/10/01 06:03:27;;;;;;;12.77;8.97;;;;;;;11.17;99.17;97499.41;6278784;28;20363;-43
2022/10/01 06:06:29;;;;;;;10.17;9.13;;;;;;;11.23;99.30;97503.31;6283245;28;20233;-44
2022/10/01 06:09:31;;;;;;;8.83;7.67;;;;;;;11.25;98.90;97499.59;6284669;28;20678;-43
2022/10/01 06:12:33;;;;;;;8.07;7.27;;;;;;;11.27;99.05;97487.09;6281543;28;20719;-43
2022/10/01 06:15:37;;;;;;;11.37;8.43;;;;;;;11.28;99.13;97491.38;6276085;28;20237;-43
2022/10/01 06:18:40;;;;;;;7.87;6.73;;;;;;;11.27;98.78;97499.44;6262893;28;20226;-45
2022/10/01 06:21:42;;;;;;;8.27;7.47;;;;;;;11.27;98.94;97505.56;6279405;28;20254;-43
2022/10/01 06:24:44;;;;;;;7.70;6.90;;;;;;;11.27;99.09;97500.28;6277047;28;20580;-44
2022/10/01 06:27:55;;;;;;;8.73;7.83;;;;;;;11.31;99.22;97498.19;6279315;28;20229;-43
2022/10/01 06:31:00;;;;;;;8.20;7.40;;;;;;;11.37;98.77;97497.69;6253718;28;20223;-43
2022/10/01 06:34:02;;;;;;;9.50;7.97;;;;;;;11.40;98.67;97497.41;6264421;28;20757;-44
2022/10/01 06:37:04;;;;;;;9.03;7.73;;;;;;;11.43;98.88;97499.78;6258146;28;20217;-43
2022/10/01 06:40:07;;;;;;;8.77;7.87;;;;;;;11.46;98.65;97499.53;6262001;28;20320;-43
2022/10/01 06:43:09;;;;;;;9.07;7.53;;;;;;;11.50;98.63;97503.56;6257705;28;20604;-44
2022/10/01 06:46:11;;;;;;;7.87;7.07;;;;;;;11.54;98.73;97493.56;6268076;28;20616;-46
2022/10/01 06:49:13;;;;;;;7.57;6.73;;;;;;;11.61;98.67;97479.69;6263471;28;20230;-44
2022/10/01 06:55:37;;;;;;;7.43;6.63;;;;;;;11.85;97.79;97471.44;6272305;28;20231;-43
2022/10/01 06:58:39;;;;;;;8.83;7.03;;;;;;;12.00;96.94;97474.50;6277581;28;20698;-44
2022/10/01 07:01:41;;;;;;;8.30;7.50;;;;;;;12.05;97.21;97469.66;6278452;28;20717;-43
2022/10/01 07:04:46;;;;;;;8.90;7.13;;;;;;;12.08;97.10;97456.97;6278784;28;20670;-44
2022/10/01 07:07:48;;;;;;;7.63;6.83;;;;;;;12.13;96.71;97462.72;6277416;28;20259;-44
2022/10/01 07:10:50;;;;;;;7.57;6.77;;;;;;;12.15;96.86;97473.16;6277791;28;20223;-44
2022/10/01 07:13:52;;;;;;;8.50;7.00;;;;;;;12.18;96.77;97470.22;6277425;28;20237;-43
2022/10/01 07:16:55;;;;;;;7.53;6.77;;;;;;;12.23;96.34;97468.00;6277968;28;20715;-44
2022/10/01 07:19:57;;;;;;;7.33;6.63;;;;;;;12.32;96.10;97468.97;6277294;28;20230;-44
2022/10/01 07:23:00;;;;;;;10.13;7.50;;;;;;;12.41;96.17;97462.84;6278502;28;20317;-44
2022/10/01 07:26:04;;;;;;;8.83;5.93;;;;;;;12.50;95.72;97454.06;6277727;28;20714;-43
2022/10/01 07:29:07;;;;;;;6.80;6.10;;;;;;;12.62;95.25;97457.41;6278188;28;20238;-44
2022/10/01 07:32:10;;;;;;;7.47;5.33;;;;;;;12.71;94.92;97441.50;6264251;28;20219;-44
2022/10/01 07:35:12;;;;;;;5.57;5.00;;;;;;;12.83;94.80;97436.88;6271375;28;20229;-44
2022/10/01 07:38:14;;;;;;;5.73;4.90;;;;;;;12.95;94.38;97427.78;6261778;28;20245;-45
2022/10/01 07:41:16;;;;;;;6.17;5.57;;;;;;;13.10;93.90;97425.50;6280124;28;20596;-44
2022/10/01 07:44:18;;;;;;;4.67;4.27;;;;;;;13.30;93.27;97432.41;6275345;28;20697;-44
2022/10/01 07:47:21;;;;;;;6.53;4.17;;;;;;;13.43;92.10;97437.41;6286076;28;20215;-43
2022/10/01 07:50:24;;;;;;;4.73;4.27;;;;;;;13.57;91.37;97435.09;6258805;28;20253;-44
2022/10/01 07:53:26;;;;;;;4.87;4.20;;;;;;;13.62;90.31;97434.66;6285530;28;20749;-44
2022/10/01 07:56:28;;;;;;;4.67;4.27;;;;;;;13.72;89.51;97438.06;6263241;28;20219;-43
2022/10/01 07:59:32;;;;;;;5.70;4.30;;;;;;;13.77;88.57;97446.44;6283004;28;20233;-44
2022/10/01 08:02:35;;;;;;;4.47;4.07;;;;;;;13.72;88.12;97461.13;6277307;28;20609;-43
2022/10/01 08:05:39;;;;;;;6.07;4.37;;;;;;;13.68;87.65;97455.25;6269378;28;20246;-45
2022/10/01 08:08:42;;;;;;;4.43;3.43;;;;;;;13.68;87.53;97458.75;6272673;28;20310;-44
2022/10/01 08:11:44;;;;;;;3.90;3.50;;;;;;;13.71;86.89;97460.28;6280733;28;20241;-44
2022/10/01 08:14:46;;;;;;;3.90;3.50;;;;;;;13.77;87.31;97459.69;6280471;28;20312;-44
2022/10/01 08:17:48;;;;;;;4.80;3.23;;;;;;;13.87;87.02;97462.28;6281361;28;20222;-43
2022/10/01 08:20:51;;;;;;;3.40;3.10;;;;;;;13.94;86.73;97461.53;6280894;28;20774;-44
2022/10/01 08:23:53;;;;;;;3.07;2.77;;;;;;;13.93;87.11;97462.53;6280800;28;20545;-44
2022/10/01 08:26:56;;;;;;;3.17;2.50;;;;;;;13.91;87.09;97467.13;6280339;28;20238;-44
2022/10/01 08:29:58;;;;;;;3.00;2.60;;;;;;;13.94;87.22;97463.34;6277895;28;20239;-48
2022/10/01 08:33:00;;;;;;;3.47;2.67;;;;;;;13.99;87.23;97472.53;6259917;28;20769;-44
2022/10/01 08:36:08;;;;;;;3.87;2.50;;;;;;;14.01;87.20;97469.72;6281670;28;20230;-45
2022/10/01 08:39:13;;;;;;;2.60;2.40;;;;;;;13.99;87.64;97466.38;6256221;28;20204;-44
2022/10/01 08:42:24;;;;;;;4.93;2.40;;;;;;;13.99;87.81;97464.56;6273271;28;20673;-45
2022/10/01 08:45:35;;;;;;;3.80;2.90;;;;;;;13.99;87.61;97466.38;6256425;28;20496;-44
2022/10/01 08:48:50;;;;;;;2.57;2.37;;;;;;;14.01;87.71;97464.41;6257900;28;20232;-44
2022/10/01 08:52:16;;;;;;;2.30;2.10;;;;;;;14.07;87.82;97470.97;6272392;28;20238;-46
2022/10/01 08:55:25;;;;;;;2.77;2.53;;;;;;;14.04;87.66;97470.28;6261167;28;20234;-44
2022/10/01 08:58:42;;;;;;;2.53;2.33;;;;;;;13.99;87.54;97475.19;6262155;28;20238;-44
2022/10/01 09:01:44;;;;;;;3.63;2.40;;;;;;;14.06;87.41;97466.63;6257089;28;20220;-44
2022/10/01 09:04:49;;;;;;;3.63;2.07;;;;;;;14.10;87.37;97470.66;6256693;28;20223;-43
2022/10/01 09:08:42;;;;;;;1.90;1.80;;;;;;;14.19;87.61;97467.91;6280130;28;20220;-44
2022/10/01 09:12:10;;;;;;;4.90;2.70;;;;;;;14.24;87.33;97463.00;6263792;28;20246;-44
2022/10/01 09:15:38;;;;;;;2.60;2.20;;;;;;;14.23;87.26;97469.31;6272291;28;20210;-43
2022/10/01 09:19:09;;;;;;;2.00;1.90;;;;;;;14.25;87.37;97456.72;6264246;28;20650;-44
2022/10/01 09:22:46;;;;;;;2.27;2.07;;;;;;;14.27;87.39;97457.41;6269610;28;20242;-44
2022/10/01 09:25:50;;;;;;;1.93;1.80;;;;;;;14.28;87.72;97458.22;6176103;28;20244;-44
2022/10/01 09:28:54;;;;;;;4.27;2.30;;;;;;;14.27;87.77;97444.13;6174276;28;20312;-44
2022/10/01 09:32:00;;;;;;;2.37;1.97;;;;;;;14.25;88.00;97446.09;6172766;28;20707;-45
2022/10/01 09:35:17;;;;;;;1.90;1.80;;;;;;;14.26;87.93;97437.16;6175470;28;20736;-44
2022/10/01 09:38:40;;;;;;;3.20;2.37;;;;;;;14.33;88.01;97432.91;6174284;28;20224;-44
2022/10/01 09:41:44;;;;;;;2.47;2.27;;;;;;;14.37;87.84;97436.09;6174045;28;20227;-43
2022/10/01 09:44:47;;;;;;;3.27;2.93;;;;;;;14.42;87.95;97435.66;6164879;28;20779;-45
2022/10/01 09:47:52;;;;;;;3.77;2.83;;;;;;;14.53;87.73;97430.94;6174917;28;20635;-45
2022/10/01 09:51:17;;;;;;;4.13;2.50;;;;;;;14.69;86.82;97428.41;6176929;28;20233;-43
2022/10/01 09:54:41;;;;;;;2.17;1.97;;;;;;;14.76;86.24;97432.13;6168066;28;20220;-44
2022/10/01 09:57:49;;;;;;;2.47;2.10;;;;;;;14.77;86.15;97431.09;6168862;28;20835;-43
2022/10/01 10:00:53;;;;;;;2.17;1.97;;;;;;;14.78;85.42;97427.47;6190702;28;20675;-43
2022/10/01 10:03:57;;;;;;;2.03;1.83;;;;;;;14.76;84.99;97433.94;6275586;28;20704;-43
2022/10/01 10:07:02;;;;;;;1.90;1.80;;;;;;;14.83;84.77;97434.97;6278763;28;20239;-43
2022/10/01 10:10:18;;;;;;;1.87;1.40;;;;;;;14.99;84.22;97429.75;6279220;28;20311;-43
2022/10/01 10:13:41;;;;;;;1.57;1.47;;;;;;;15.23;82.97;97422.94;6278691;28;20709;-45
2022/10/01 10:16:46;;;;;;;1.50;1.40;;;;;;;15.45;81.58;97417.88;6255987;28;20316;-46
2022/10/01 10:19:51;;;;;;;1.43;1.33;;;;;;;15.52;78.46;97408.25;6263733;28;20242;-43
2022/10/01 10:22:53;;;;;;;1.30;1.20;;;;;;;15.57;79.67;97413.16;6264074;28;20238;-46
2022/10/01 10:26:01;;;;;;;1.50;1.40;;;;;;;15.64;79.60;97411.50;6257631;28;20225;-45
2022/10/01 10:29:06;;;;;;;2.90;1.60;;;;;;;15.74;79.26;97414.84;6267331;28;20709;-44
2022/10/01 10:32:22;;;;;;;1.80;1.53;;;;;;;15.87;79.06;97407.22;6253610;28;20234;-45
2022/10/01 10:35:25;;;;;;;2.00;1.90;;;;;;;16.01;77.45;97402.28;6255251;28;20227;-45
2022/10/01 10:38:31;;;;;;;2.07;1.23;;;;;;;16.18;77.70;97396.78;6267415;28;20230;-47
2022/10/01 10:41:33;;;;;;;2.23;2.10;;;;;;;16.22;76.19;97390.16;6260293;28;20717;-43
2022/10/01 10:44:38;;;;;;;2.30;2.10;;;;;;;16.29;75.61;97385.00;6271859;28;20234;-43
2022/10/01 10:47:47;;;;;;;1.83;1.73;;;;;;;16.33;74.03;97389.00;6266934;28;20245;-43
2022/10/01 10:50:49;;;;;;;1.80;1.70;;;;;;;16.44;74.62;97377.19;6274661;28;20241;-43
2022/10/01 10:53:51;;;;;;;2.30;2.10;;;;;;;16.50;73.55;97373.84;6272054;28;20235;-43
2022/10/01 10:56:59;;;;;;;2.20;2.10;;;;;;;16.59;73.71;97376.31;6266691;28;20269;-45
2022/10/01 11:00:15;;;;;;;2.47;2.07;;;;;;;16.64;73.59;97367.03;6265605;28;20606;-42
2022/10/01 11:03:22;;;;;;;1.77;1.50;;;;;;;16.73;73.67;97361.53;6261041;28;20741;-43
2022/10/01 11:06:25;;;;;;;2.60;1.70;;;;;;;16.94;73.85;97351.16;6275806;28;20305;-43
2022/10/01 11:09:54;;;;;;;2.50;1.57;;;;;;;-144.22;100.00;60274.75;6261472;28;20229;-42
2022/10/01 11:13:28;;;;;;;2.83;1.37;;;;;;;-144.22;100.00;60274.75;6276877;28;20238;-43
2022/10/01 11:17:04;;;;;;;1.63;1.30;;;;;;;17.61;100.00;60274.75;6275722;28;20223;-43
2022/10/01 11:20:35;;;;;;;1.17;1.10;;;;;;;-144.22;100.00;60274.75;6256577;28;20465;-45
2022/10/01 11:23:56;;;;;;;1.40;1.30;;;;;;;17.61;100.00;60274.75;6269663;28;20218;-48
2022/10/01 11:27:23;;;;;;;1.60;1.37;;;;;;;-144.22;100.00;60274.75;6255160;28;20715;-48
2022/10/01 11:30:35;;;;;;;1.27;1.10;;;;;;;18.50;100.00;60274.75;6275049;28;20576;-43
2022/10/01 11:34:10;;;;;;;1.33;0.90;;;;;;;18.98;100.00;60274.75;6274725;28;20315;-44
2022/10/01 11:37:15;;;;;;;1.27;1.03;;;;;;;-144.22;100.00;60274.75;6254939;28;20226;-45
2022/10/01 11:40:25;;;;;;;0.70;0.70;;;;;;;-144.22;100.00;60274.75;6264999;28;20259;-44
2022/10/01 11:43:36;;;;;;;0.90;0.60;;;;;;;-144.22;100.00;60274.75;6274930;28;20436;-45
2022/10/01 11:47:00;;;;;;;0.70;0.70;;;;;;;19.05;100.00;60274.75;6281459;28;20336;-45
2022/10/01 11:50:07;;;;;;;0.90;0.60;;;;;;;-144.22;100.00;60274.75;6278446;28;20313;-44
2022/10/01 11:53:32;;;;;;;1.07;0.60;;;;;;;-144.22;100.00;60274.75;6273181;28;20706;-45
2022/10/01 12:00:09;;;;;;;0.47;0.47;;;;;;;-144.22;100.00;60274.75;6279369;28;20595;-43
2022/10/01 12:03:20;;;;;;;0.60;0.60;;;;;;;19.03;100.00;60274.75;6271906;28;20222;-43
2022/10/01 12:06:32;;;;;;;0.60;0.50;;;;;;;-144.22;100.00;60274.75;6269877;28;20531;-44
2022/10/01 12:09:53;;;;;;;0.50;0.50;;;;;;;188.01;100.00;60274.75;6268868;28;20234;-43
2022/10/01 12:13:06;;;;;;;2.00;0.60;;;;;;;-144.22;100.00;60274.75;6270839;28;20234;-43
2022/10/01 12:16:29;;;;;;;1.20;0.80;;;;;;;18.66;100.00;60274.75;6258589;28;20699;-43
2022/10/01 12:19:35;;;;;;;0.40;0.40;;;;;;;-144.22;100.00;60274.75;6259931;28;20235;-44
2022/10/01 12:22:39;;;;;;;1.20;0.57;;;;;;;-144.22;100.00;60274.75;6260860;28;20238;-42
2022/10/01 12:26:04;;;;;;;1.60;0.60;;;;;;;18.74;100.00;60274.75;6268940;28;20693;-46
2022/10/01 12:29:35;;;;;;;2.13;0.60;;;;;;;-144.22;100.00;60274.75;6254512;28;20308;-43
2022/10/01 12:32:37;;;;;;;0.70;0.70;;;;;;;-144.22;100.00;60274.75;6236548;28;20782;-44
2022/10/01 12:36:06;;;;;;;2.03;0.60;;;;;;;18.46;100.00;60274.75;6276863;28;20230;-43
2022/10/01 12:39:20;;;;;;;0.50;0.50;;;;;;;18.43;59.34;97264.47;6277676;28;20428;-43
2022/10/01 12:42:55;;;;;;;2.47;0.80;;;;;;;-144.22;100.00;60274.75;6286526;28;20700;-44
2022/10/01 12:46:40;;;;;;;1.50;0.87;;;;;;;18.38;100.00;80218.84;6282355;28;20253;-44
2022/10/01 12:49:55;;;;;;;0.83;0.80;;;;;;;18.46;100.00;60274.75;6279897;28;20327;-44
2022/10/01 12:53:27;;;;;;;0.90;0.70;;;;;;;-144.22;100.00;60274.75;6260891;28;20375;-43
2022/10/01 12:56:48;;;;;;;0.70;0.70;;;;;;;-144.22;100.00;60274.75;6279411;28;20295;-44
2022/10/01 13:00:02;;;;;;;2.10;0.70;;;;;;;-144.22;100.00;60274.75;6280485;28;20652;-43
2022/10/01 13:03:17;;;;;;;2.17;0.93;;;;;;;18.05;100.00;97249.50;6279136;28;20245;-43
2022/10/01 13:06:34;;;;;;;2.93;1.07;;;;;;;-144.22;100.00;60274.75;6280275;28;20589;-45
2022/10/01 13:09:58;;;;;;;0.83;0.83;;;;;;;-144.22;100.00;60274.75;6274838;28;20951;-43
2022/10/01 13:13:10;;;;;;;4.60;1.13;;;;;;;-144.22;100.00;60274.75;6272697;28;20229;-43
2022/10/01 13:16:19;;;;;;;0.67;0.67;;;;;;;18.05;100.00;60274.75;6267804;28;20322;-46
2022/10/01 13:19:33;;;;;;;3.23;0.90;;;;;;;18.05;100.00;103223.03;6266801;28;20718;-43
2022/10/01 13:22:46;;;;;;;0.73;0.70;;;;;;;18.05;100.00;80171.72;6268453;28;20618;-44
2022/10/01 13:26:16;;;;;;;1.20;1.10;;;;;;;18.05;100.00;97249.31;6264374;28;20293;-44
2022/10/01 13:29:27;;;;;;;1.10;0.97;;;;;;;18.05;100.00;97249.50;6265282;28;20599;-45
2022/10/01 13:33:03;;;;;;;2.20;0.80;;;;;;;-144.22;100.00;60274.75;6280247;28;20325;-44
2022/10/01 13:36:08;;;;;;;1.03;0.80;;;;;;;-144.22;100.00;60274.75;6265144;28;20675;-43
2022/10/01 13:39:22;;;;;;;1.70;0.80;;;;;;;-144.22;100.00;60274.75;6273218;28;20784;-44
2022/10/01 13:42:44;;;;;;;1.50;1.03;;;;;;;-144.22;100.00;60274.75;6277633;28;20595;-43
2022/10/01 13:45:54;;;;;;;0.97;0.80;;;;;;;-144.22;100.00;60274.75;6274996;28;20223;-45
2022/10/01 13:49:06;;;;;;;0.80;0.80;;;;;;;-144.22;100.00;60274.75;6274043;28;21781;-43
2022/10/01 13:52:18;;;;;;;0.70;0.70;;;;;;;-144.22;100.00;60274.75;6276077;28;20211;-43
2022/10/01 13:55:26;;;;;;;2.50;1.00;;;;;;;-144.22;100.00;60274.75;6280418;28;20233;-43
2022/10/01 13:58:28;;;;;;;0.77;0.77;;;;;;;-144.22;100.00;60274.75;6273030;28;20233;-44
2022/10/01 14:01:41;;;;;;;0.77;0.77;;;;;;;-144.22;100.00;60274.75;6268721;28;20234;-43
2022/10/01 14:04:45;;;;;;;2.07;0.90;;;;;;;-144.22;100.00;60274.75;6271897;28;20227;-43
2022/10/01 14:07:54;;;;;;;2.30;1.03;;;;;;;-144.22;100.00;60274.75;6270534;28;20789;-44
2022/10/01 14:18:19;;;;;;;1.43;1.03;;;;;;;-144.22;100.00;60274.75;6274336;28;20261;-44
2022/10/01 14:21:40;;;;;;;1.00;0.90;;;;;;;-144.22;100.00;60274.75;6263524;28;20231;-44
2022/10/01 14:25:01;;;;;;;0.77;0.77;;;;;;;-144.22;100.00;60274.75;6270933;28;20588;-44
2022/10/01 14:28:40;;;;;;;1.27;1.10;;;;;;;-144.22;100.00;60274.75;6285381;28;20223;-43
2022/10/01 14:31:54;;;;;;;2.00;1.03;;;;;;;-144.22;100.00;60274.75;6284220;28;20537;-44
2022/10/01 14:34:56;;;;;;;2.17;1.30;;;;;;;-144.22;100.00;60274.75;6263994;28;20308;-44
2022/10/01 14:38:09;;;;;;;4.93;1.33;;;;;;;-144.22;100.00;60274.75;6265520;28;20710;-44
2022/10/01 14:41:19;;;;;;;2.17;1.40;;;;;;;-144.22;100.00;60274.75;6264872;28;20227;-44
2022/10/01 14:44:37;;;;;;;1.43;1.10;;;;;;;-144.22;100.00;60274.75;6275405;28;20295;-50
2022/10/01 14:47:39;;;;;;;1.17;1.00;;;;;;;-144.22;100.00;60274.75;6252416;28;20235;-45
2022/10/01 14:50:48;;;;;;;0.93;0.90;;;;;;;-144.22;100.00;60274.75;6254158;28;20266;-43